SBCY/CGB METAR and TAF weather

Enter ICAO airport designator
Station Type Date Time Source
SBCY METAR 2019/10/23 03:00 UTC NOAA

SBCY 230300Z 02002KT CAVOK 26/21 Q1010


Station Type Date Time Source
SBCY Decoded METAR 2019/10/23 03:00 UTC NOAA

Cuiaba Aeroporto , Brazil (SBCY) 15-39S 056-06W 182M
Oct 22, 2019 - 11:00 PM EDT / 2019.10.23 0300 UTC
Wind: from the NNE (020 degrees) at 2 MPH (2 KT):0
Visibility: greater than 7 mile(s):0
Temperature: 78 F (26 C)
Dew Point: 69 F (21 C)
Relative Humidity: 73%
Pressure (altimeter): 29.83 in. Hg (1010 hPa)
ob: SBCY 230300Z 02002KT CAVOK 26/21 Q1010
cycle: 3

Station Type Date Time Source
SBCY TAF 2019/10/23 00:00 UTC NOAA

TAF SBCY 222100Z 2300/2324 12005KT 9999 SCT030 TN23/2308Z TX30/2317Z
BECMG 2305/2307 18005KT FEW023
BECMG 2314/2316 12005KT BKN020 PROB30 2316/2321 FEW020 FEW025TCU
BECMG 2321/2323 04005KT
RMK PGY

Example: see airport list